sensor_id;sensor_type;location;lat;lon;timestamp;temperature;humidity
68556;HTU21D;55544;51.032;5.866;2022-09-14T00:00:30;20.88;76.03
68556;HTU21D;55544;51.032;5.866;2022-09-14T00:02:56;20.89;75.56
68556;HTU21D;55544;51.032;5.866;2022-09-14T00:05:22;20.90;75.19
68556;HTU21D;55544;51.032;5.866;2022-09-14T00:07:48;20.89;75.12
68556;HTU21D;55544;51.032;5.866;2022-09-14T00:10:13;20.87;75.25
68556;HTU21D;55544;51.032;5.866;2022-09-14T00:12:39;20.86;75.27
68556;HTU21D;55544;51.032;5.866;2022-09-14T00:15:05;20.87;75.12
68556;HTU21D;55544;51.032;5.866;2022-09-14T00:17:32;20.86;74.94
68556;HTU21D;55544;51.032;5.866;2022-09-14T00:19:58;20.83;74.87
68556;HTU21D;55544;51.032;5.866;2022-09-14T00:22:24;20.76;74.90
68556;HTU21D;55544;51.032;5.866;2022-09-14T00:24:49;20.73;75.13
68556;HTU21D;55544;51.032;5.866;2022-09-14T00:27:15;20.70;75.58
68556;HTU21D;55544;51.032;5.866;2022-09-14T00:29:41;20.70;75.80
68556;HTU21D;55544;51.032;5.866;2022-09-14T00:32:07;20.70;75.92
68556;HTU21D;55544;51.032;5.866;2022-09-14T00:34:32;20.75;75.89
68556;HTU21D;55544;51.032;5.866;2022-09-14T00:36:59;20.77;75.84
68556;HTU21D;55544;51.032;5.866;2022-09-14T00:39:25;20.80;75.62
68556;HTU21D;55544;51.032;5.866;2022-09-14T00:41:53;20.80;75.26
68556;HTU21D;55544;51.032;5.866;2022-09-14T00:46:46;20.77;75.24
68556;HTU21D;55544;51.032;5.866;2022-09-14T00:49:30;20.73;75.15
68556;HTU21D;55544;51.032;5.866;2022-09-14T00:52:21;20.68;75.47
68556;HTU21D;55544;51.032;5.866;2022-09-14T00:54:51;20.63;75.60
68556;HTU21D;55544;51.032;5.866;2022-09-14T00:57:19;20.59;75.43
68556;HTU21D;55544;51.032;5.866;2022-09-14T00:59:48;20.51;75.73
68556;HTU21D;55544;51.032;5.866;2022-09-14T01:02:15;20.47;76.16
68556;HTU21D;55544;51.032;5.866;2022-09-14T01:04:42;20.42;76.34
68556;HTU21D;55544;51.032;5.866;2022-09-14T01:20:57;20.60;76.12
68556;HTU21D;55544;51.032;5.866;2022-09-14T01:31:46;20.56;75.42
68556;HTU21D;55544;51.032;5.866;2022-09-14T01:34:15;20.51;75.49
68556;HTU21D;55544;51.032;5.866;2022-09-14T01:36:47;20.50;75.29
68556;HTU21D;55544;51.032;5.866;2022-09-14T01:39:19;20.46;75.60
68556;HTU21D;55544;51.032;5.866;2022-09-14T01:41:48;20.42;75.34
68556;HTU21D;55544;51.032;5.866;2022-09-14T01:44:26;20.40;75.49
68556;HTU21D;55544;51.032;5.866;2022-09-14T01:46:59;20.37;75.54
68556;HTU21D;55544;51.032;5.866;2022-09-14T01:49:35;20.36;75.70
68556;HTU21D;55544;51.032;5.866;2022-09-14T01:52:23;20.34;75.78
68556;HTU21D;55544;51.032;5.866;2022-09-14T01:55:15;20.36;75.89
68556;HTU21D;55544;51.032;5.866;2022-09-14T01:58:47;20.40;75.64
68556;HTU21D;55544;51.032;5.866;2022-09-14T02:00:56;20.43;75.46
68556;HTU21D;55544;51.032;5.866;2022-09-14T02:03:30;20.40;75.25
68556;HTU21D;55544;51.032;5.866;2022-09-14T02:06:24;20.27;75.98
68556;HTU21D;55544;51.032;5.866;2022-09-14T02:08:52;20.26;76.26
68556;HTU21D;55544;51.032;5.866;2022-09-14T02:11:18;20.29;76.31
68556;HTU21D;55544;51.032;5.866;2022-09-14T02:13:44;20.34;76.38
68556;HTU21D;55544;51.032;5.866;2022-09-14T02:16:11;20.36;76.41
68556;HTU21D;55544;51.032;5.866;2022-09-14T02:18:38;20.40;76.46
68556;HTU21D;55544;51.032;5.866;2022-09-14T02:21:14;20.45;76.50
68556;HTU21D;55544;51.032;5.866;2022-09-14T02:23:41;20.44;76.43
68556;HTU21D;55544;51.032;5.866;2022-09-14T02:26:08;20.42;76.57
68556;HTU21D;55544;51.032;5.866;2022-09-14T02:28:34;20.40;76.67
68556;HTU21D;55544;51.032;5.866;2022-09-14T02:40:00;20.29;77.00
68556;HTU21D;55544;51.032;5.866;2022-09-14T02:50:28;20.17;77.59
68556;HTU21D;55544;51.032;5.866;2022-09-14T02:55:59;20.11;77.64
68556;HTU21D;55544;51.032;5.866;2022-09-14T02:58:37;20.07;77.85
68556;HTU21D;55544;51.032;5.866;2022-09-14T03:01:05;20.05;77.98
68556;HTU21D;55544;51.032;5.866;2022-09-14T03:03:32;20.06;78.09
68556;HTU21D;55544;51.032;5.866;2022-09-14T03:05:58;20.03;78.11
68556;HTU21D;55544;51.032;5.866;2022-09-14T03:08:26;20.01;78.05
68556;HTU21D;55544;51.032;5.866;2022-09-14T03:10:52;20.00;78.18
68556;HTU21D;55544;51.032;5.866;2022-09-14T03:13:18;19.99;78.14
68556;HTU21D;55544;51.032;5.866;2022-09-14T03:15:44;19.98;78.26
68556;HTU21D;55544;51.032;5.866;2022-09-14T03:18:10;19.97;78.22
68556;HTU21D;55544;51.032;5.866;2022-09-14T03:20:36;19.97;77.98
68556;HTU21D;55544;51.032;5.866;2022-09-14T03:23:03;19.97;78.01
68556;HTU21D;55544;51.032;5.866;2022-09-14T03:25:30;19.97;77.77
68556;HTU21D;55544;51.032;5.866;2022-09-14T03:27:58;19.95;77.64
68556;HTU21D;55544;51.032;5.866;2022-09-14T03:30:25;19.92;77.34
68556;HTU21D;55544;51.032;5.866;2022-09-14T03:32:51;19.91;77.48
68556;HTU21D;55544;51.032;5.866;2022-09-14T03:35:18;19.88;77.64
68556;HTU21D;55544;51.032;5.866;2022-09-14T03:37:45;19.87;77.70
68556;HTU21D;55544;51.032;5.866;2022-09-14T03:40:12;19.82;77.83
68556;HTU21D;55544;51.032;5.866;2022-09-14T03:42:47;19.79;77.74
68556;HTU21D;55544;51.032;5.866;2022-09-14T03:45:15;19.76;77.68
68556;HTU21D;55544;51.032;5.866;2022-09-14T03:47:42;19.71;77.66
68556;HTU21D;55544;51.032;5.866;2022-09-14T03:50:10;19.67;77.80
68556;HTU21D;55544;51.032;5.866;2022-09-14T03:52:37;19.65;77.85
68556;HTU21D;55544;51.032;5.866;2022-09-14T03:55:05;19.61;78.10
68556;HTU21D;55544;51.032;5.866;2022-09-14T03:57:32;19.61;78.05
68556;HTU21D;55544;51.032;5.866;2022-09-14T03:59:58;19.61;78.11
68556;HTU21D;55544;51.032;5.866;2022-09-14T04:02:24;19.59;77.91
68556;HTU21D;55544;51.032;5.866;2022-09-14T04:04:49;19.55;78.14
68556;HTU21D;55544;51.032;5.866;2022-09-14T04:07:15;19.50;78.32
68556;HTU21D;55544;51.032;5.866;2022-09-14T04:09:41;19.44;78.44
68556;HTU21D;55544;51.032;5.866;2022-09-14T04:12:08;19.40;78.45
68556;HTU21D;55544;51.032;5.866;2022-09-14T04:14:33;19.36;78.75
68556;HTU21D;55544;51.032;5.866;2022-09-14T04:16:59;19.31;78.86
68556;HTU21D;55544;51.032;5.866;2022-09-14T04:19:25;19.27;78.93
68556;HTU21D;55544;51.032;5.866;2022-09-14T04:21:51;19.26;78.99
68556;HTU21D;55544;51.032;5.866;2022-09-14T04:24:16;19.24;79.09
68556;HTU21D;55544;51.032;5.866;2022-09-14T04:26:43;19.24;79.17
68556;HTU21D;55544;51.032;5.866;2022-09-14T04:29:10;19.24;79.16
68556;HTU21D;55544;51.032;5.866;2022-09-14T04:31:36;19.24;79.21
68556;HTU21D;55544;51.032;5.866;2022-09-14T04:34:02;19.22;79.14
68556;HTU21D;55544;51.032;5.866;2022-09-14T04:36:28;19.20;79.14
68556;HTU21D;55544;51.032;5.866;2022-09-14T04:39:00;19.17;79.17
68556;HTU21D;55544;51.032;5.866;2022-09-14T04:41:27;19.13;79.34
68556;HTU21D;55544;51.032;5.866;2022-09-14T04:43:54;19.11;79.41
68556;HTU21D;55544;51.032;5.866;2022-09-14T04:46:23;19.10;79.64
68556;HTU21D;55544;51.032;5.866;2022-09-14T04:48:50;19.10;79.75
68556;HTU21D;55544;51.032;5.866;2022-09-14T04:51:22;19.11;79.66
68556;HTU21D;55544;51.032;5.866;2022-09-14T04:53:50;19.11;79.67
68556;HTU21D;55544;51.032;5.866;2022-09-14T04:56:17;19.10;79.61
68556;HTU21D;55544;51.032;5.866;2022-09-14T04:58:50;19.09;79.59
68556;HTU21D;55544;51.032;5.866;2022-09-14T05:01:19;19.05;79.60
68556;HTU21D;55544;51.032;5.866;2022-09-14T05:03:45;19.00;79.85
68556;HTU21D;55544;51.032;5.866;2022-09-14T05:08:38;18.99;80.02
68556;HTU21D;55544;51.032;5.866;2022-09-14T05:11:06;19.01;80.23
68556;HTU21D;55544;51.032;5.866;2022-09-14T05:13:32;19.02;80.27
68556;HTU21D;55544;51.032;5.866;2022-09-14T05:16:12;19.03;80.34
68556;HTU21D;55544;51.032;5.866;2022-09-14T05:18:39;19.03;80.20
68556;HTU21D;55544;51.032;5.866;2022-09-14T05:21:08;19.05;79.95
68556;HTU21D;55544;51.032;5.866;2022-09-14T05:23:34;19.03;80.01
68556;HTU21D;55544;51.032;5.866;2022-09-14T05:26:00;19.02;80.00
68556;HTU21D;55544;51.032;5.866;2022-09-14T05:28:26;19.01;80.06
68556;HTU21D;55544;51.032;5.866;2022-09-14T05:30:53;19.01;80.31
68556;HTU21D;55544;51.032;5.866;2022-09-14T05:33:19;18.99;80.36
68556;HTU21D;55544;51.032;5.866;2022-09-14T05:35:47;19.01;80.39
68556;HTU21D;55544;51.032;5.866;2022-09-14T05:38:14;19.05;80.46
68556;HTU21D;55544;51.032;5.866;2022-09-14T05:40:40;19.08;80.36
68556;HTU21D;55544;51.032;5.866;2022-09-14T05:43:06;19.11;80.20
68556;HTU21D;55544;51.032;5.866;2022-09-14T05:45:32;19.11;79.91
68556;HTU21D;55544;51.032;5.866;2022-09-14T05:48:02;19.09;79.72
68556;HTU21D;55544;51.032;5.866;2022-09-14T05:50:32;19.06;79.78
68556;HTU21D;55544;51.032;5.866;2022-09-14T05:52:59;19.00;80.05
68556;HTU21D;55544;51.032;5.866;2022-09-14T05:55:25;18.99;79.84
68556;HTU21D;55544;51.032;5.866;2022-09-14T05:57:51;18.96;80.09
68556;HTU21D;55544;51.032;5.866;2022-09-14T06:00:18;18.94;79.85
68556;HTU21D;55544;51.032;5.866;2022-09-14T06:02:48;18.91;79.90
68556;HTU21D;55544;51.032;5.866;2022-09-14T06:05:15;18.89;80.04
68556;HTU21D;55544;51.032;5.866;2022-09-14T06:07:40;18.91;79.82
68556;HTU21D;55544;51.032;5.866;2022-09-14T06:10:07;18.92;79.89
68556;HTU21D;55544;51.032;5.866;2022-09-14T06:12:33;18.93;80.01
68556;HTU21D;55544;51.032;5.866;2022-09-14T06:14:58;18.94;79.86
68556;HTU21D;55544;51.032;5.866;2022-09-14T06:17:24;18.95;79.86
68556;HTU21D;55544;51.032;5.866;2022-09-14T06:19:50;18.93;79.73
68556;HTU21D;55544;51.032;5.866;2022-09-14T06:22:16;18.92;79.90
68556;HTU21D;55544;51.032;5.866;2022-09-14T06:24:41;18.89;79.97
68556;HTU21D;55544;51.032;5.866;2022-09-14T06:27:07;18.89;80.20
68556;HTU21D;55544;51.032;5.866;2022-09-14T06:29:34;18.87;80.41
68556;HTU21D;55544;51.032;5.866;2022-09-14T06:32:00;18.85;80.32
68556;HTU21D;55544;51.032;5.866;2022-09-14T06:34:26;18.84;80.36
68556;HTU21D;55544;51.032;5.866;2022-09-14T06:36:51;18.86;80.45
68556;HTU21D;55544;51.032;5.866;2022-09-14T06:39:17;18.84;80.34
68556;HTU21D;55544;51.032;5.866;2022-09-14T06:41:43;18.85;80.30
68556;HTU21D;55544;51.032;5.866;2022-09-14T06:44:17;18.81;80.01
68556;HTU21D;55544;51.032;5.866;2022-09-14T06:46:43;18.74;80.01
68556;HTU21D;55544;51.032;5.866;2022-09-14T06:49:12;18.71;80.23
68556;HTU21D;55544;51.032;5.866;2022-09-14T06:51:43;18.69;80.29
68556;HTU21D;55544;51.032;5.866;2022-09-14T06:54:11;18.68;80.33
68556;HTU21D;55544;51.032;5.866;2022-09-14T06:56:39;18.65;80.52
68556;HTU21D;55544;51.032;5.866;2022-09-14T06:59:07;18.59;80.75
68556;HTU21D;55544;51.032;5.866;2022-09-14T07:01:33;18.56;80.76
68556;HTU21D;55544;51.032;5.866;2022-09-14T07:03:59;18.54;80.94
68556;HTU21D;55544;51.032;5.866;2022-09-14T07:06:31;18.57;81.11
68556;HTU21D;55544;51.032;5.866;2022-09-14T07:08:57;18.61;80.99
68556;HTU21D;55544;51.032;5.866;2022-09-14T07:11:26;18.59;80.88
68556;HTU21D;55544;51.032;5.866;2022-09-14T07:13:53;18.57;80.94
68556;HTU21D;55544;51.032;5.866;2022-09-14T07:16:20;18.56;80.98
68556;HTU21D;55544;51.032;5.866;2022-09-14T07:18:46;18.53;81.02
68556;HTU21D;55544;51.032;5.866;2022-09-14T07:21:16;18.55;81.25
68556;HTU21D;55544;51.032;5.866;2022-09-14T07:23:44;18.55;80.98
68556;HTU21D;55544;51.032;5.866;2022-09-14T07:26:34;18.52;80.86
68556;HTU21D;55544;51.032;5.866;2022-09-14T07:29:01;18.47;80.67
68556;HTU21D;55544;51.032;5.866;2022-09-14T07:31:37;18.47;81.01
68556;HTU21D;55544;51.032;5.866;2022-09-14T07:34:04;18.50;81.06
68556;HTU21D;55544;51.032;5.866;2022-09-14T07:36:32;18.51;80.90
68556;HTU21D;55544;51.032;5.866;2022-09-14T07:38:59;18.50;80.65
68556;HTU21D;55544;51.032;5.866;2022-09-14T07:41:26;18.49;80.61
68556;HTU21D;55544;51.032;5.866;2022-09-14T07:43:55;18.48;80.70
68556;HTU21D;55544;51.032;5.866;2022-09-14T07:46:22;18.44;80.65
68556;HTU21D;55544;51.032;5.866;2022-09-14T07:48:54;18.43;80.46
68556;HTU21D;55544;51.032;5.866;2022-09-14T07:51:20;18.43;80.68
68556;HTU21D;55544;51.032;5.866;2022-09-14T07:53:45;18.46;80.64
68556;HTU21D;55544;51.032;5.866;2022-09-14T07:56:13;18.47;80.82
68556;HTU21D;55544;51.032;5.866;2022-09-14T07:58:41;18.48;80.83
68556;HTU21D;55544;51.032;5.866;2022-09-14T08:01:10;18.48;80.91
68556;HTU21D;55544;51.032;5.866;2022-09-14T08:03:39;18.47;80.49
68556;HTU21D;55544;51.032;5.866;2022-09-14T08:08:38;18.42;80.50
68556;HTU21D;55544;51.032;5.866;2022-09-14T08:11:12;18.42;80.71
68556;HTU21D;55544;51.032;5.866;2022-09-14T08:13:41;18.41;80.96
68556;HTU21D;55544;51.032;5.866;2022-09-14T08:16:08;18.42;81.02
68556;HTU21D;55544;51.032;5.866;2022-09-14T08:18:35;18.42;81.18
68556;HTU21D;55544;51.032;5.866;2022-09-14T08:21:10;18.43;81.13
68556;HTU21D;55544;51.032;5.866;2022-09-14T08:23:37;18.43;81.12
68556;HTU21D;55544;51.032;5.866;2022-09-14T08:26:11;18.44;81.17
68556;HTU21D;55544;51.032;5.866;2022-09-14T08:28:38;18.48;81.10
68556;HTU21D;55544;51.032;5.866;2022-09-14T08:31:25;18.52;80.94
68556;HTU21D;55544;51.032;5.866;2022-09-14T08:33:55;18.54;80.88
68556;HTU21D;55544;51.032;5.866;2022-09-14T08:36:23;18.58;81.09
68556;HTU21D;55544;51.032;5.866;2022-09-14T08:38:49;18.64;80.93
68556;HTU21D;55544;51.032;5.866;2022-09-14T08:43:44;18.67;81.17
68556;HTU21D;55544;51.032;5.866;2022-09-14T08:46:32;18.67;81.09
68556;HTU21D;55544;51.032;5.866;2022-09-14T08:49:02;18.71;80.93
68556;HTU21D;55544;51.032;5.866;2022-09-14T08:51:29;18.77;80.75
68556;HTU21D;55544;51.032;5.866;2022-09-14T08:53:56;18.82;80.50
68556;HTU21D;55544;51.032;5.866;2022-09-14T08:56:31;18.84;80.38
68556;HTU21D;55544;51.032;5.866;2022-09-14T09:07:43;18.83;80.60
68556;HTU21D;55544;51.032;5.866;2022-09-14T09:10:12;18.87;80.32
68556;HTU21D;55544;51.032;5.866;2022-09-14T09:12:43;18.92;80.46
68556;HTU21D;55544;51.032;5.866;2022-09-14T09:15:44;18.96;80.61
68556;HTU21D;55544;51.032;5.866;2022-09-14T09:18:21;18.99;80.46
68556;HTU21D;55544;51.032;5.866;2022-09-14T09:20:57;18.99;80.14
68556;HTU21D;55544;51.032;5.866;2022-09-14T09:23:28;18.99;79.82
68556;HTU21D;55544;51.032;5.866;2022-09-14T09:28:45;18.93;80.04
68556;HTU21D;55544;51.032;5.866;2022-09-14T09:31:15;18.87;80.14
68556;HTU21D;55544;51.032;5.866;2022-09-14T09:34:11;18.85;80.38
68556;HTU21D;55544;51.032;5.866;2022-09-14T09:36:41;18.81;80.69
68556;HTU21D;55544;51.032;5.866;2022-09-14T09:39:08;18.83;80.65
68556;HTU21D;55544;51.032;5.866;2022-09-14T09:41:47;18.85;80.61
68556;HTU21D;55544;51.032;5.866;2022-09-14T09:44:13;18.86;80.51
68556;HTU21D;55544;51.032;5.866;2022-09-14T09:46:58;18.86;80.49
68556;HTU21D;55544;51.032;5.866;2022-09-14T09:49:30;18.88;80.86
68556;HTU21D;55544;51.032;5.866;2022-09-14T09:52:11;18.92;80.92
68556;HTU21D;55544;51.032;5.866;2022-09-14T09:54:41;18.97;81.04
68556;HTU21D;55544;51.032;5.866;2022-09-14T09:57:35;19.00;80.88
68556;HTU21D;55544;51.032;5.866;2022-09-14T10:00:20;19.02;80.64
68556;HTU21D;55544;51.032;5.866;2022-09-14T10:02:47;19.06;80.71
68556;HTU21D;55544;51.032;5.866;2022-09-14T10:08:03;19.06;80.75
68556;HTU21D;55544;51.032;5.866;2022-09-14T10:13:01;19.00;80.64
68556;HTU21D;55544;51.032;5.866;2022-09-14T10:15:32;18.98;80.85
68556;HTU21D;55544;51.032;5.866;2022-09-14T10:18:18;18.97;80.88
68556;HTU21D;55544;51.032;5.866;2022-09-14T10:25:44;18.92;81.22
68556;HTU21D;55544;51.032;5.866;2022-09-14T10:28:29;18.89;81.33
68556;HTU21D;55544;51.032;5.866;2022-09-14T10:31:45;18.88;81.14
68556;HTU21D;55544;51.032;5.866;2022-09-14T10:33:52;18.86;81.33
68556;HTU21D;55544;51.032;5.866;2022-09-14T10:36:38;18.88;81.53
68556;HTU21D;55544;51.032;5.866;2022-09-14T10:39:22;18.86;81.26
68556;HTU21D;55544;51.032;5.866;2022-09-14T10:53:17;18.80;80.95
68556;HTU21D;55544;51.032;5.866;2022-09-14T10:56:10;18.76;80.85
68556;HTU21D;55544;51.032;5.866;2022-09-14T10:58:57;18.74;80.87
68556;HTU21D;55544;51.032;5.866;2022-09-14T11:12:54;18.68;81.22
68556;HTU21D;55544;51.032;5.866;2022-09-14T11:18:22;18.65;81.26
68556;HTU21D;55544;51.032;5.866;2022-09-14T11:21:15;18.61;81.19
68556;HTU21D;55544;51.032;5.866;2022-09-14T11:23:47;18.56;80.70
68556;HTU21D;55544;51.032;5.866;2022-09-14T11:26:24;18.50;80.45
68556;HTU21D;55544;51.032;5.866;2022-09-14T11:28:52;18.43;80.79
68556;HTU21D;55544;51.032;5.866;2022-09-14T11:31:42;18.41;80.66
68556;HTU21D;55544;51.032;5.866;2022-09-14T11:34:14;18.39;80.36
68556;HTU21D;55544;51.032;5.866;2022-09-14T11:37:07;18.35;80.24
68556;HTU21D;55544;51.032;5.866;2022-09-14T11:39:59;18.29;79.73
68556;HTU21D;55544;51.032;5.866;2022-09-14T11:42:35;18.22;79.81
68556;HTU21D;55544;51.032;5.866;2022-09-14T11:45:40;18.18;79.58
68556;HTU21D;55544;51.032;5.866;2022-09-14T11:48:13;18.13;79.33
68556;HTU21D;55544;51.032;5.866;2022-09-14T11:50:42;18.07;79.01
68556;HTU21D;55544;51.032;5.866;2022-09-14T11:53:14;17.96;78.29
68556;HTU21D;55544;51.032;5.866;2022-09-14T11:55:47;17.87;78.03
68556;HTU21D;55544;51.032;5.866;2022-09-14T11:58:21;17.81;78.13
68556;HTU21D;55544;51.032;5.866;2022-09-14T12:03:19;17.72;78.11
68556;HTU21D;55544;51.032;5.866;2022-09-14T12:05:47;17.69;78.18
68556;HTU21D;55544;51.032;5.866;2022-09-14T12:11:23;17.68;78.46
68556;HTU21D;55544;51.032;5.866;2022-09-14T12:19:40;17.70;79.25
68556;HTU21D;55544;51.032;5.866;2022-09-14T12:22:35;17.75;79.09
68556;HTU21D;55544;51.032;5.866;2022-09-14T12:27:35;17.81;79.22
68556;HTU21D;55544;51.032;5.866;2022-09-14T12:30:32;17.89;79.04
68556;HTU21D;55544;51.032;5.866;2022-09-14T12:32:47;17.96;79.01
68556;HTU21D;55544;51.032;5.866;2022-09-14T12:59:11;18.13;78.93
68556;HTU21D;55544;51.032;5.866;2022-09-14T13:01:48;18.07;79.24
68556;HTU21D;55544;51.032;5.866;2022-09-14T13:06:49;17.90;79.49
68556;HTU21D;55544;51.032;5.866;2022-09-14T13:09:27;17.93;79.80
68556;HTU21D;55544;51.032;5.866;2022-09-14T13:11:56;18.00;79.88
68556;HTU21D;55544;51.032;5.866;2022-09-14T13:14:27;18.04;79.65
68556;HTU21D;55544;51.032;5.866;2022-09-14T13:16:58;18.08;79.88
68556;HTU21D;55544;51.032;5.866;2022-09-14T13:19:29;18.15;79.88
68556;HTU21D;55544;51.032;5.866;2022-09-14T13:21:58;18.21;79.41
68556;HTU21D;55544;51.032;5.866;2022-09-14T13:24:35;18.24;79.30
68556;HTU21D;55544;51.032;5.866;2022-09-14T13:27:03;18.28;79.37
68556;HTU21D;55544;51.032;5.866;2022-09-14T13:29:30;18.30;79.27
68556;HTU21D;55544;51.032;5.866;2022-09-14T13:31:58;18.35;79.02
68556;HTU21D;55544;51.032;5.866;2022-09-14T13:34:33;18.36;78.95
68556;HTU21D;55544;51.032;5.866;2022-09-14T13:37:01;18.37;78.88
68556;HTU21D;55544;51.032;5.866;2022-09-14T13:39:35;18.35;79.08
68556;HTU21D;55544;51.032;5.866;2022-09-14T13:42:03;18.34;79.07
68556;HTU21D;55544;51.032;5.866;2022-09-14T13:44:40;18.34;79.10
68556;HTU21D;55544;51.032;5.866;2022-09-14T13:47:24;18.37;79.00
68556;HTU21D;55544;51.032;5.866;2022-09-14T13:49:52;18.35;79.17
68556;HTU21D;55544;51.032;5.866;2022-09-14T13:52:32;18.35;78.91
68556;HTU21D;55544;51.032;5.866;2022-09-14T13:55:18;18.32;78.67
68556;HTU21D;55544;51.032;5.866;2022-09-14T13:58:23;18.26;78.75
68556;HTU21D;55544;51.032;5.866;2022-09-14T14:03:31;18.23;79.30
68556;HTU21D;55544;51.032;5.866;2022-09-14T14:05:58;18.20;79.65
68556;HTU21D;55544;51.032;5.866;2022-09-14T14:08:31;18.20;79.25
68556;HTU21D;55544;51.032;5.866;2022-09-14T14:11:01;18.20;78.86
68556;HTU21D;55544;51.032;5.866;2022-09-14T14:13:30;18.22;78.58
68556;HTU21D;55544;51.032;5.866;2022-09-14T14:16:32;18.26;78.11
68556;HTU21D;55544;51.032;5.866;2022-09-14T14:18:58;18.28;77.95
68556;HTU21D;55544;51.032;5.866;2022-09-14T14:21:29;18.30;77.79
68556;HTU21D;55544;51.032;5.866;2022-09-14T14:24:24;18.30;77.94
68556;HTU21D;55544;51.032;5.866;2022-09-14T14:26:54;18.34;78.11
68556;HTU21D;55544;51.032;5.866;2022-09-14T14:29:21;18.36;77.95
68556;HTU21D;55544;51.032;5.866;2022-09-14T14:31:48;18.39;78.16
68556;HTU21D;55544;51.032;5.866;2022-09-14T14:34:27;18.40;77.78
68556;HTU21D;55544;51.032;5.866;2022-09-14T14:36:54;18.40;77.66
68556;HTU21D;55544;51.032;5.866;2022-09-14T14:39:22;18.36;77.79
68556;HTU21D;55544;51.032;5.866;2022-09-14T14:41:49;18.36;77.95
68556;HTU21D;55544;51.032;5.866;2022-09-14T14:44:19;18.33;78.13
68556;HTU21D;55544;51.032;5.866;2022-09-14T14:46:46;18.33;78.15
68556;HTU21D;55544;51.032;5.866;2022-09-14T14:49:14;18.30;78.00
68556;HTU21D;55544;51.032;5.866;2022-09-14T14:51:42;18.33;78.13
68556;HTU21D;55544;51.032;5.866;2022-09-14T14:54:09;18.34;77.99
68556;HTU21D;55544;51.032;5.866;2022-09-14T14:56:36;18.33;78.09
68556;HTU21D;55544;51.032;5.866;2022-09-14T15:01:48;18.35;78.25
68556;HTU21D;55544;51.032;5.866;2022-09-14T15:04:14;18.35;78.15
68556;HTU21D;55544;51.032;5.866;2022-09-14T15:06:40;18.37;78.30
68556;HTU21D;55544;51.032;5.866;2022-09-14T15:09:15;18.38;78.38
68556;HTU21D;55544;51.032;5.866;2022-09-14T15:11:41;18.34;78.04
68556;HTU21D;55544;51.032;5.866;2022-09-14T15:14:13;18.24;78.17
68556;HTU21D;55544;51.032;5.866;2022-09-14T15:16:39;18.23;78.70
68556;HTU21D;55544;51.032;5.866;2022-09-14T15:19:06;18.29;78.63
68556;HTU21D;55544;51.032;5.866;2022-09-14T15:21:31;18.34;78.63
68556;HTU21D;55544;51.032;5.866;2022-09-14T15:23:57;18.40;78.52
68556;HTU21D;55544;51.032;5.866;2022-09-14T15:26:24;18.50;78.44
68556;HTU21D;55544;51.032;5.866;2022-09-14T15:28:50;18.58;78.31
68556;HTU21D;55544;51.032;5.866;2022-09-14T15:31:17;18.65;77.82
68556;HTU21D;55544;51.032;5.866;2022-09-14T15:33:43;18.56;78.01
68556;HTU21D;55544;51.032;5.866;2022-09-14T15:36:08;18.56;78.39
68556;HTU21D;55544;51.032;5.866;2022-09-14T15:38:35;18.58;77.86
68556;HTU21D;55544;51.032;5.866;2022-09-14T15:41:01;18.55;77.86
68556;HTU21D;55544;51.032;5.866;2022-09-14T15:43:26;18.54;78.35
68556;HTU21D;55544;51.032;5.866;2022-09-14T15:45:52;18.46;77.89
68556;HTU21D;55544;51.032;5.866;2022-09-14T15:48:18;18.42;78.95
68556;HTU21D;55544;51.032;5.866;2022-09-14T15:50:46;18.52;78.75
68556;HTU21D;55544;51.032;5.866;2022-09-14T15:53:14;18.58;78.33
68556;HTU21D;55544;51.032;5.866;2022-09-14T15:55:41;18.64;78.23
68556;HTU21D;55544;51.032;5.866;2022-09-14T15:58:08;18.67;77.50
68556;HTU21D;55544;51.032;5.866;2022-09-14T16:00:35;18.72;77.86
68556;HTU21D;55544;51.032;5.866;2022-09-14T16:03:03;18.78;77.94
68556;HTU21D;55544;51.032;5.866;2022-09-14T16:05:29;18.84;77.93
68556;HTU21D;55544;51.032;5.866;2022-09-14T16:07:56;18.89;77.55
68556;HTU21D;55544;51.032;5.866;2022-09-14T16:10:23;18.93;77.58
68556;HTU21D;55544;51.032;5.866;2022-09-14T16:12:52;18.97;77.48
68556;HTU21D;55544;51.032;5.866;2022-09-14T16:15:19;18.99;77.51
68556;HTU21D;55544;51.032;5.866;2022-09-14T16:17:49;19.02;77.22
68556;HTU21D;55544;51.032;5.866;2022-09-14T16:20:15;19.03;77.17
68556;HTU21D;55544;51.032;5.866;2022-09-14T16:22:41;19.01;76.84
68556;HTU21D;55544;51.032;5.866;2022-09-14T16:25:06;18.99;76.34
68556;HTU21D;55544;51.032;5.866;2022-09-14T16:27:32;18.96;76.43
68556;HTU21D;55544;51.032;5.866;2022-09-14T16:29:58;18.94;76.96
68556;HTU21D;55544;51.032;5.866;2022-09-14T16:32:24;18.93;77.17
68556;HTU21D;55544;51.032;5.866;2022-09-14T16:34:49;18.94;77.32
68556;HTU21D;55544;51.032;5.866;2022-09-14T16:37:15;18.96;77.67
68556;HTU21D;55544;51.032;5.866;2022-09-14T16:39:41;18.97;77.90
68556;HTU21D;55544;51.032;5.866;2022-09-14T16:42:07;18.99;77.66
68556;HTU21D;55544;51.032;5.866;2022-09-14T16:44:32;18.98;77.63
68556;HTU21D;55544;51.032;5.866;2022-09-14T16:46:58;18.95;77.95
68556;HTU21D;55544;51.032;5.866;2022-09-14T16:49:25;18.97;77.89
68556;HTU21D;55544;51.032;5.866;2022-09-14T16:51:51;18.98;77.87
68556;HTU21D;55544;51.032;5.866;2022-09-14T16:54:19;18.98;77.82
68556;HTU21D;55544;51.032;5.866;2022-09-14T16:56:45;18.98;77.81
68556;HTU21D;55544;51.032;5.866;2022-09-14T16:59:12;18.97;77.75
68556;HTU21D;55544;51.032;5.866;2022-09-14T17:01:41;18.93;77.71
68556;HTU21D;55544;51.032;5.866;2022-09-14T17:04:10;18.86;77.87
68556;HTU21D;55544;51.032;5.866;2022-09-14T17:06:38;18.82;77.95
68556;HTU21D;55544;51.032;5.866;2022-09-14T17:09:14;18.79;77.81
68556;HTU21D;55544;51.032;5.866;2022-09-14T17:11:41;18.77;77.97
68556;HTU21D;55544;51.032;5.866;2022-09-14T17:14:12;18.77;77.90
68556;HTU21D;55544;51.032;5.866;2022-09-14T17:16:38;18.73;77.69
68556;HTU21D;55544;51.032;5.866;2022-09-14T17:19:04;18.71;77.75
68556;HTU21D;55544;51.032;5.866;2022-09-14T17:21:35;18.67;77.68
68556;HTU21D;55544;51.032;5.866;2022-09-14T17:24:02;18.64;77.84
68556;HTU21D;55544;51.032;5.866;2022-09-14T17:26:29;18.61;78.01
68556;HTU21D;55544;51.032;5.866;2022-09-14T17:28:57;18.59;77.98
68556;HTU21D;55544;51.032;5.866;2022-09-14T17:31:26;18.61;77.82
68556;HTU21D;55544;51.032;5.866;2022-09-14T17:33:54;18.61;77.83
68556;HTU21D;55544;51.032;5.866;2022-09-14T17:36:20;18.63;77.79
68556;HTU21D;55544;51.032;5.866;2022-09-14T17:38:47;18.62;77.35
68556;HTU21D;55544;51.032;5.866;2022-09-14T17:41:19;18.66;77.41
68556;HTU21D;55544;51.032;5.866;2022-09-14T17:43:50;18.62;77.06
68556;HTU21D;55544;51.032;5.866;2022-09-14T17:46:17;18.44;77.34
68556;HTU21D;55544;51.032;5.866;2022-09-14T17:48:43;18.30;78.22
68556;HTU21D;55544;51.032;5.866;2022-09-14T17:51:15;18.23;78.82
68556;HTU21D;55544;51.032;5.866;2022-09-14T17:53:48;18.25;79.21
68556;HTU21D;55544;51.032;5.866;2022-09-14T17:56:16;18.34;78.84
68556;HTU21D;55544;51.032;5.866;2022-09-14T17:58:42;18.41;78.43